Time;durP1;ratioP1;P1;durP2;ratioP2;P2;SDS_P1;SDS_P2;PMS_P1;PMS_P2;Temp;Humidity;BMP_temperature;BMP_pressure;BME280_temperature;BME280_humidity;BME280_pressure;Samples;Min_cycle;Max_cycle;Signal;HPM_P1;HPM_P2
2021/10/17 00:00:12;;;;;;;2.70;2.47;;;13.40;99.90;;;;;;5024524;28;20507;-67
2021/10/17 00:02:40;;;;;;;3.72;3.35;;;13.40;99.90;;;;;;5016397;28;20241;-67
2021/10/17 00:05:07;;;;;;;6.83;3.17;;;13.40;99.90;;;;;;5033334;28;20325;-67
2021/10/17 00:07:34;;;;;;;4.03;2.97;;;13.40;99.90;;;;;;5016986;28;20479;-68
2021/10/17 00:10:07;;;;;;;2.70;2.45;;;13.40;99.90;;;;;;5020760;28;20684;-67
2021/10/17 00:12:34;;;;;;;4.60;3.05;;;13.40;99.90;;;;;;5028093;28;20564;-68
2021/10/17 00:15:01;;;;;;;4.38;2.92;;;13.40;99.90;;;;;;5014810;28;20295;-67
2021/10/17 00:17:28;;;;;;;4.57;2.50;;;13.40;99.90;;;;;;5027967;28;20306;-68
2021/10/17 00:19:55;;;;;;;3.55;2.35;;;13.40;99.90;;;;;;5014121;28;20238;-68
2021/10/17 00:22:22;;;;;;;3.28;2.25;;;13.40;99.90;;;;;;5020594;28;20709;-68
2021/10/17 00:24:49;;;;;;;4.05;2.90;;;13.40;99.90;;;;;;5021706;28;20226;-68
2021/10/17 00:27:17;;;;;;;3.13;2.78;;;13.40;99.90;;;;;;5028131;28;20234;-68
2021/10/17 00:29:44;;;;;;;3.35;2.80;;;13.40;99.90;;;;;;5021515;28;20695;-66
2021/10/17 00:32:13;;;;;;;3.88;2.70;;;13.40;99.90;;;;;;5021723;28;20221;-66
2021/10/17 00:34:40;;;;;;;3.92;2.45;;;13.40;99.90;;;;;;5022311;28;20230;-66
2021/10/17 00:37:07;;;;;;;4.47;2.63;;;13.40;99.90;;;;;;5023304;28;20234;-69
2021/10/17 00:39:35;;;;;;;5.05;2.80;;;13.30;99.90;;;;;;5022884;28;20249;-67
2021/10/17 00:42:04;;;;;;;3.08;2.15;;;13.30;99.90;;;;;;5023872;28;20680;-67
2021/10/17 00:44:33;;;;;;;4.50;3.13;;;13.30;99.90;;;;;;5022897;28;20221;-67
2021/10/17 00:47:00;;;;;;;4.78;2.75;;;13.30;99.90;;;;;;5025491;28;20243;-67
2021/10/17 00:49:27;;;;;;;2.92;2.63;;;13.30;99.90;;;;;;5021317;28;20230;-67
2021/10/17 00:51:55;;;;;;;3.90;2.70;;;13.30;99.90;;;;;;5023764;28;20887;-67
2021/10/17 00:54:22;;;;;;;2.63;2.35;;;13.30;99.90;;;;;;5017328;28;20545;-67
2021/10/17 00:56:49;;;;;;;3.85;2.55;;;13.30;99.90;;;;;;5023944;28;20592;-67
2021/10/17 00:59:16;;;;;;;3.95;2.53;;;13.30;99.90;;;;;;5027078;28;20887;-67
2021/10/17 01:01:44;;;;;;;3.28;2.60;;;13.30;99.90;;;;;;5023446;28;20355;-67
2021/10/17 01:04:11;;;;;;;5.75;2.90;;;13.30;99.90;;;;;;5020528;28;20275;-67
2021/10/17 01:06:38;;;;;;;2.90;2.70;;;13.30;99.90;;;;;;5023341;28;20226;-67
2021/10/17 01:09:06;;;;;;;3.53;2.50;;;13.30;99.90;;;;;;5026809;28;20221;-67
2021/10/17 01:11:41;;;;;;;2.43;2.10;;;13.30;99.90;;;;;;5026495;28;20248;-67
2021/10/17 01:14:09;;;;;;;5.07;2.58;;;13.30;99.90;;;;;;5019988;28;20486;-67
2021/10/17 01:16:38;;;;;;;5.25;3.35;;;13.30;99.90;;;;;;5021672;28;20226;-67
2021/10/17 01:19:06;;;;;;;4.63;3.10;;;13.30;99.90;;;;;;5026446;28;20230;-67
2021/10/17 01:21:40;;;;;;;4.43;3.67;;;13.30;99.40;;;;;;5026305;28;20286;-67
2021/10/17 01:24:08;;;;;;;5.85;2.85;;;13.30;99.30;;;;;;5013466;28;20229;-67
2021/10/17 01:26:35;;;;;;;4.40;3.28;;;13.20;99.10;;;;;;5027025;28;20221;-67
2021/10/17 01:29:03;;;;;;;9.48;3.92;;;13.20;98.80;;;;;;5025356;28;20245;-67
2021/10/17 01:31:34;;;;;;;6.88;2.80;;;13.20;98.80;;;;;;5026654;28;20287;-67
2021/10/17 01:34:05;;;;;;;3.83;2.80;;;13.20;98.40;;;;;;5031943;28;20282;-67
2021/10/17 01:36:32;;;;;;;3.88;2.53;;;13.20;98.50;;;;;;5020096;28;20596;-67
2021/10/17 01:39:00;;;;;;;4.30;3.53;;;13.20;98.50;;;;;;5029923;28;20672;-67
2021/10/17 01:41:27;;;;;;;3.58;3.22;;;13.20;98.40;;;;;;5030428;28;20233;-67
2021/10/17 01:43:54;;;;;;;4.82;4.03;;;13.20;98.40;;;;;;5027037;28;20693;-67
2021/10/17 01:46:21;;;;;;;6.32;4.50;;;13.20;98.30;;;;;;5018917;28;20232;-67
2021/10/17 01:48:48;;;;;;;5.43;3.80;;;13.20;98.30;;;;;;5022965;28;20288;-67
2021/10/17 01:51:15;;;;;;;6.50;2.90;;;13.20;98.20;;;;;;5029203;28;20226;-67
2021/10/17 01:53:42;;;;;;;4.97;3.08;;;13.20;98.00;;;;;;5030270;28;20225;-67
2021/10/17 01:56:12;;;;;;;5.03;2.15;;;13.20;97.90;;;;;;5021465;28;20232;-67
2021/10/17 01:58:39;;;;;;;4.55;2.53;;;13.20;97.90;;;;;;5019253;28;20240;-67
2021/10/17 02:01:07;;;;;;;4.45;2.88;;;13.20;97.90;;;;;;5003054;28;20334;-67
2021/10/17 02:03:33;;;;;;;4.85;2.33;;;13.10;98.00;;;;;;5006423;28;20226;-67
2021/10/17 02:06:02;;;;;;;5.53;3.20;;;13.10;98.10;;;;;;5003489;28;20224;-67
2021/10/17 02:08:29;;;;;;;2.55;2.33;;;13.10;98.00;;;;;;4999558;28;20228;-67
2021/10/17 02:10:56;;;;;;;7.43;3.13;;;13.10;98.10;;;;;;5000023;28;20292;-67
2021/10/17 02:13:25;;;;;;;2.95;2.72;;;13.10;98.30;;;;;;4996959;28;20223;-67
2021/10/17 02:15:52;;;;;;;5.18;2.70;;;13.10;98.30;;;;;;4990329;28;20293;-67
2021/10/17 02:18:18;;;;;;;4.47;3.00;;;13.10;98.30;;;;;;4998321;28;20289;-67
2021/10/17 02:20:45;;;;;;;4.20;3.80;;;13.10;98.40;;;;;;4993297;28;20254;-67
2021/10/17 02:23:12;;;;;;;5.55;3.40;;;13.10;98.40;;;;;;4997832;28;20234;-67
2021/10/17 02:25:39;;;;;;;5.63;3.33;;;13.10;98.30;;;;;;4993308;28;20297;-66
2021/10/17 02:28:06;;;;;;;4.32;3.67;;;13.10;98.10;;;;;;4997106;28;20223;-67
2021/10/17 02:30:34;;;;;;;4.43;2.90;;;13.20;98.10;;;;;;4992918;28;20234;-67
2021/10/17 02:33:01;;;;;;;4.55;2.70;;;13.20;98.00;;;;;;5002598;28;20303;-67
2021/10/17 02:35:28;;;;;;;3.05;2.42;;;13.20;98.00;;;;;;5000349;28;20289;-67
2021/10/17 02:37:55;;;;;;;3.75;2.63;;;13.20;97.90;;;;;;5003815;28;20235;-67
2021/10/17 02:40:22;;;;;;;3.55;2.90;;;13.20;97.70;;;;;;4997926;28;20293;-67
2021/10/17 02:42:49;;;;;;;3.25;2.40;;;13.20;97.50;;;;;;4992653;28;20223;-67
2021/10/17 02:45:16;;;;;;;3.63;2.85;;;13.20;97.50;;;;;;4987868;28;20222;-67
2021/10/17 02:47:44;;;;;;;3.08;2.60;;;13.20;97.30;;;;;;4998434;28;20296;-67
2021/10/17 02:50:11;;;;;;;3.50;2.65;;;13.20;97.20;;;;;;4999405;28;20534;-67
2021/10/17 02:52:38;;;;;;;2.67;2.33;;;13.20;97.10;;;;;;5012876;28;20276;-67
2021/10/17 02:55:06;;;;;;;4.03;2.47;;;13.20;97.00;;;;;;4999142;28;20281;-67
2021/10/17 02:57:33;;;;;;;5.35;2.28;;;13.20;96.90;;;;;;5004968;28;20737;-67
2021/10/17 03:00:00;;;;;;;2.47;2.28;;;13.20;96.80;;;;;;5015744;28;20286;-67
2021/10/17 03:02:27;;;;;;;2.92;2.50;;;13.20;96.80;;;;;;5020459;28;20290;-67
2021/10/17 03:04:55;;;;;;;5.55;2.90;;;13.20;96.70;;;;;;5018428;28;20680;-67
2021/10/17 03:07:22;;;;;;;4.75;2.78;;;13.20;96.60;;;;;;5023737;28;20226;-67
2021/10/17 03:09:49;;;;;;;3.40;2.17;;;13.20;96.40;;;;;;5025480;28;20267;-67
2021/10/17 03:12:16;;;;;;;3.42;2.80;;;13.20;96.50;;;;;;5030267;28;20218;-67
2021/10/17 03:14:43;;;;;;;3.70;2.28;;;13.20;96.50;;;;;;5018644;28;20284;-67
2021/10/17 03:17:10;;;;;;;3.97;2.30;;;13.20;96.70;;;;;;5023293;28;20226;-67
2021/10/17 03:19:37;;;;;;;4.07;2.67;;;13.20;96.80;;;;;;5025382;28;20237;-67
2021/10/17 03:22:05;;;;;;;3.75;2.25;;;13.20;96.80;;;;;;5020627;28;20295;-67
2021/10/17 03:24:32;;;;;;;8.13;2.60;;;13.20;96.90;;;;;;5018686;28;20731;-67
2021/10/17 03:26:59;;;;;;;5.93;3.08;;;13.20;97.00;;;;;;5022498;28;20234;-66
2021/10/17 03:29:26;;;;;;;8.68;3.05;;;13.20;97.10;;;;;;5025382;28;20274;-66
2021/10/17 03:31:53;;;;;;;4.97;3.10;;;13.20;97.10;;;;;;5020079;28;20233;-66
2021/10/17 03:34:20;;;;;;;3.63;2.42;;;13.20;96.90;;;;;;5028729;28;20214;-66
2021/10/17 03:36:47;;;;;;;4.53;2.60;;;13.20;97.00;;;;;;5021968;28;20225;-66
2021/10/17 03:39:15;;;;;;;5.40;3.00;;;13.10;96.90;;;;;;5025166;28;20237;-66
2021/10/17 03:41:42;;;;;;;7.35;2.90;;;13.10;96.90;;;;;;5025709;28;20676;-66
2021/10/17 03:44:09;;;;;;;4.00;2.72;;;13.00;97.00;;;;;;5027184;28;20249;-68
2021/10/17 03:46:35;;;;;;;3.75;3.03;;;13.00;97.10;;;;;;5026128;28;20229;-68
2021/10/17 03:49:02;;;;;;;4.97;2.83;;;13.00;97.10;;;;;;5021677;28;20230;-66
2021/10/17 03:51:29;;;;;;;4.40;3.35;;;12.90;97.20;;;;;;5034789;28;20295;-66
2021/10/17 03:53:56;;;;;;;4.55;3.05;;;12.90;97.20;;;;;;5030499;28;20229;-68
2021/10/17 03:56:24;;;;;;;4.55;2.85;;;12.90;97.40;;;;;;5026372;28;20309;-66
2021/10/17 03:58:51;;;;;;;4.80;2.60;;;12.80;97.30;;;;;;5021532;28;20232;-66
2021/10/17 04:01:18;;;;;;;4.30;2.33;;;12.80;97.30;;;;;;5023090;28;20546;-66
2021/10/17 04:03:45;;;;;;;3.67;2.65;;;12.80;97.30;;;;;;5028725;28;20237;-66
2021/10/17 04:06:12;;;;;;;2.83;2.15;;;12.70;97.20;;;;;;5026386;28;20228;-66
2021/10/17 04:08:41;;;;;;;3.35;2.55;;;12.70;97.20;;;;;;5021489;28;20729;-66
2021/10/17 04:11:08;;;;;;;4.55;2.80;;;12.70;97.30;;;;;;5031663;28;20229;-68
2021/10/17 04:13:36;;;;;;;7.90;3.30;;;12.70;97.30;;;;;;5029185;28;20226;-66
2021/10/17 04:16:03;;;;;;;7.93;4.50;;;12.60;97.30;;;;;;5027195;28;20286;-66
2021/10/17 04:18:30;;;;;;;10.15;4.75;;;12.60;97.30;;;;;;5021486;28;20245;-66
2021/10/17 04:20:57;;;;;;;4.55;4.15;;;12.60;97.40;;;;;;5021554;28;20276;-66
2021/10/17 04:23:24;;;;;;;6.38;4.05;;;12.60;97.50;;;;;;5027853;28;20744;-66
2021/10/17 04:25:51;;;;;;;4.70;3.00;;;12.50;97.50;;;;;;5027972;28;20228;-66
2021/10/17 04:28:18;;;;;;;6.05;3.42;;;12.50;97.60;;;;;;5023114;28;20694;-68
2021/10/17 04:30:46;;;;;;;2.97;2.60;;;12.40;97.60;;;;;;5034315;28;20299;-66
2021/10/17 04:33:13;;;;;;;5.22;2.63;;;12.40;97.50;;;;;;5032244;28;20283;-66
2021/10/17 04:35:41;;;;;;;4.28;2.30;;;12.40;97.60;;;;;;5026687;28;20225;-68
2021/10/17 04:38:08;;;;;;;3.67;2.15;;;12.40;97.70;;;;;;5027368;28;20286;-68
2021/10/17 04:40:37;;;;;;;3.28;2.63;;;12.40;97.70;;;;;;5022209;28;20250;-68
2021/10/17 04:43:04;;;;;;;3.15;2.50;;;12.40;97.80;;;;;;5028709;28;20222;-68
2021/10/17 04:45:31;;;;;;;10.45;3.83;;;12.40;97.90;;;;;;5023356;28;20683;-68
2021/10/17 04:47:59;;;;;;;3.38;2.35;;;12.40;97.90;;;;;;5027463;28;20311;-68
2021/10/17 04:50:26;;;;;;;6.72;2.88;;;12.40;98.00;;;;;;5022422;28;20571;-68
2021/10/17 04:52:53;;;;;;;3.40;2.47;;;12.40;98.10;;;;;;5020962;28;20232;-68
2021/10/17 04:55:20;;;;;;;5.55;2.72;;;12.40;98.20;;;;;;5024248;28;20672;-68
2021/10/17 04:57:47;;;;;;;3.65;2.83;;;12.40;98.20;;;;;;5027595;28;20283;-68
2021/10/17 05:00:15;;;;;;;4.95;3.25;;;12.40;98.20;;;;;;5022963;28;20256;-68
2021/10/17 05:02:42;;;;;;;7.15;2.70;;;12.30;98.20;;;;;;5020405;28;20237;-68
2021/10/17 05:05:10;;;;;;;2.80;2.60;;;12.40;98.30;;;;;;5023876;28;20284;-68
2021/10/17 05:07:38;;;;;;;5.90;3.35;;;12.40;98.30;;;;;;5027500;28;20279;-68
2021/10/17 05:10:05;;;;;;;4.68;2.60;;;12.30;98.30;;;;;;5022796;28;20252;-68
2021/10/17 05:12:32;;;;;;;3.20;2.22;;;12.40;98.30;;;;;;5021401;28;20230;-68
2021/10/17 05:14:59;;;;;;;5.85;2.90;;;12.40;98.40;;;;;;5020353;28;20222;-68
2021/10/17 05:17:26;;;;;;;4.25;2.70;;;12.30;98.40;;;;;;5025829;28;20222;-68
2021/10/17 05:19:53;;;;;;;4.60;2.88;;;12.30;98.40;;;;;;5026074;28;20229;-68
2021/10/17 05:22:21;;;;;;;4.97;2.70;;;12.30;98.40;;;;;;5021160;28;20228;-68
2021/10/17 05:24:48;;;;;;;5.65;2.80;;;12.30;98.50;;;;;;5020140;28;20229;-68
2021/10/17 05:27:15;;;;;;;4.60;2.42;;;12.20;98.40;;;;;;5024900;28;20226;-68
2021/10/17 05:29:42;;;;;;;3.65;2.65;;;12.20;98.40;;;;;;5013307;28;20241;-68
2021/10/17 05:32:09;;;;;;;5.03;3.30;;;12.20;98.50;;;;;;5015535;28;20217;-68
2021/10/17 05:34:36;;;;;;;5.30;2.95;;;12.20;98.50;;;;;;5033612;28;20293;-68
2021/10/17 05:37:03;;;;;;;6.88;3.35;;;12.20;98.50;;;;;;5033209;28;20286;-68
2021/10/17 05:39:31;;;;;;;6.90;3.08;;;12.20;98.40;;;;;;5033137;28;20234;-68
2021/10/17 05:41:58;;;;;;;5.13;2.85;;;12.10;98.40;;;;;;5033402;28;20240;-68
2021/10/17 05:44:25;;;;;;;6.57;2.65;;;12.10;98.40;;;;;;5027263;28;20229;-68
2021/10/17 05:46:52;;;;;;;4.00;2.30;;;12.00;98.40;;;;;;5033363;28;20229;-68
2021/10/17 05:49:18;;;;;;;4.13;2.50;;;12.00;98.30;;;;;;5032783;28;20236;-68
2021/10/17 05:51:45;;;;;;;4.03;3.03;;;12.00;98.30;;;;;;5033123;28;20766;-68
2021/10/17 05:54:12;;;;;;;4.18;2.10;;;12.10;98.30;;;;;;5032538;28;20290;-68
2021/10/17 05:56:40;;;;;;;5.82;2.63;;;12.00;98.20;;;;;;5033326;28;20233;-66
2021/10/17 05:59:09;;;;;;;3.78;2.88;;;12.00;98.20;;;;;;5032524;28;20251;-66
2021/10/17 06:01:36;;;;;;;8.68;3.35;;;12.10;98.30;;;;;;5032621;28;20567;-66
2021/10/17 06:04:03;;;;;;;5.25;2.80;;;12.10;98.20;;;;;;5032938;28;20330;-68
2021/10/17 06:06:30;;;;;;;6.03;2.90;;;12.10;98.20;;;;;;5032540;28;20237;-66
2021/10/17 06:08:58;;;;;;;2.88;2.30;;;12.10;98.20;;;;;;5032490;28;20701;-67
2021/10/17 06:11:25;;;;;;;6.30;2.90;;;12.10;98.20;;;;;;5032583;28;20832;-68
2021/10/17 06:13:53;;;;;;;6.10;3.30;;;12.10;98.20;;;;;;5032921;28;20218;-67
2021/10/17 06:16:20;;;;;;;6.75;3.00;;;12.10;98.10;;;;;;5032424;28;20749;-68
2021/10/17 06:18:47;;;;;;;5.47;3.17;;;12.10;98.10;;;;;;5032858;28;20236;-68
2021/10/17 06:21:14;;;;;;;4.85;2.58;;;12.10;98.20;;;;;;5032084;28;20375;-66
2021/10/17 06:23:41;;;;;;;5.55;3.35;;;12.10;98.10;;;;;;5032747;28;20225;-66
2021/10/17 06:26:08;;;;;;;5.75;3.70;;;12.10;97.90;;;;;;5032452;28;20219;-66
2021/10/17 06:28:35;;;;;;;9.35;3.00;;;12.10;98.00;;;;;;5032596;28;20620;-66
2021/10/17 06:31:03;;;;;;;5.95;3.15;;;12.10;97.80;;;;;;5032708;28;20229;-66
2021/10/17 06:33:30;;;;;;;8.60;3.53;;;12.10;97.80;;;;;;5032197;28;20263;-66
2021/10/17 06:35:57;;;;;;;5.88;3.60;;;12.10;97.70;;;;;;5032494;28;20360;-66
2021/10/17 06:38:24;;;;;;;5.80;4.32;;;12.20;97.80;;;;;;5032025;28;20243;-68
2021/10/17 06:40:51;;;;;;;4.80;4.00;;;12.20;97.80;;;;;;5032549;28;20236;-68
2021/10/17 06:43:18;;;;;;;8.85;4.65;;;12.30;97.80;;;;;;5028686;28;20220;-66
2021/10/17 06:45:45;;;;;;;4.15;3.03;;;12.20;97.70;;;;;;5030517;28;20312;-66
2021/10/17 06:48:13;;;;;;;9.55;3.88;;;12.30;97.80;;;;;;5031966;28;20691;-66
2021/10/17 06:50:40;;;;;;;4.03;2.85;;;12.30;97.70;;;;;;5032248;28;20232;-67
2021/10/17 06:53:07;;;;;;;6.70;3.10;;;12.30;97.60;;;;;;5032751;28;20694;-66
2021/10/17 06:55:34;;;;;;;3.45;2.70;;;12.30;97.60;;;;;;5032045;28;20987;-66
2021/10/17 06:58:01;;;;;;;3.13;2.15;;;12.30;97.70;;;;;;5032490;28;20286;-66
2021/10/17 07:00:28;;;;;;;5.57;3.65;;;12.40;97.60;;;;;;5031863;28;20306;-66
2021/10/17 07:02:55;;;;;;;4.57;2.95;;;12.40;97.60;;;;;;5032477;28;20228;-66
2021/10/17 07:05:23;;;;;;;3.85;3.05;;;12.40;97.50;;;;;;5025911;28;20225;-66
2021/10/17 07:07:52;;;;;;;3.42;2.55;;;12.40;97.30;;;;;;5012866;28;20228;-66
2021/10/17 07:10:19;;;;;;;3.15;2.30;;;12.40;97.30;;;;;;5011966;28;20226;-66
2021/10/17 07:12:46;;;;;;;2.75;2.55;;;12.40;97.30;;;;;;5012612;28;20280;-67
2021/10/17 07:15:13;;;;;;;5.55;2.92;;;12.50;97.30;;;;;;5015601;28;20677;-66
2021/10/17 07:17:39;;;;;;;6.53;2.63;;;12.50;97.20;;;;;;5016328;28;20234;-66
2021/10/17 07:20:08;;;;;;;4.25;2.10;;;12.50;97.20;;;;;;5016321;28;20290;-66
2021/10/17 07:22:36;;;;;;;3.95;3.20;;;12.50;97.20;;;;;;5015926;28;20229;-66
2021/10/17 07:25:04;;;;;;;3.22;2.88;;;12.50;97.20;;;;;;5016247;28;20229;-66
2021/10/17 07:27:30;;;;;;;5.38;3.00;;;12.60;97.10;;;;;;5015778;28;20689;-66
2021/10/17 07:29:58;;;;;;;5.10;3.05;;;12.60;97.10;;;;;;5016251;28;20691;-66
2021/10/17 07:32:25;;;;;;;3.95;2.67;;;12.60;97.20;;;;;;5021371;28;20233;-66
2021/10/17 07:34:52;;;;;;;6.43;3.10;;;12.60;97.20;;;;;;5035898;28;20213;-66
2021/10/17 07:37:18;;;;;;;7.60;3.65;;;12.70;97.20;;;;;;5035238;28;20305;-66
2021/10/17 07:39:47;;;;;;;4.75;3.20;;;12.70;97.30;;;;;;5035584;28;20225;-66
2021/10/17 07:42:14;;;;;;;3.47;2.72;;;12.70;97.40;;;;;;5035108;28;20275;-66
2021/10/17 07:44:41;;;;;;;4.40;3.50;;;12.70;97.50;;;;;;5026474;28;20229;-66
2021/10/17 07:47:07;;;;;;;4.30;3.50;;;12.80;97.60;;;;;;5015775;28;20248;-66
2021/10/17 07:49:34;;;;;;;6.95;3.35;;;12.80;97.60;;;;;;5015268;28;20672;-66
2021/10/17 07:52:01;;;;;;;3.65;2.70;;;12.80;97.50;;;;;;5015605;28;20278;-66
2021/10/17 07:54:28;;;;;;;6.05;3.40;;;12.70;97.40;;;;;;5015055;28;20230;-67
2021/10/17 07:56:57;;;;;;;4.05;2.47;;;12.80;97.50;;;;;;5015770;28;20218;-67
2021/10/17 07:59:23;;;;;;;3.40;2.63;;;12.70;97.40;;;;;;5014977;28;20806;-67
2021/10/17 08:01:50;;;;;;;5.32;3.58;;;12.70;97.30;;;;;;5015417;28;20292;-67
2021/10/17 08:04:17;;;;;;;6.15;3.20;;;12.80;97.30;;;;;;5015273;28;20230;-67
2021/10/17 08:06:44;;;;;;;3.25;2.95;;;12.80;97.30;;;;;;5015413;28;20541;-67
2021/10/17 08:09:11;;;;;;;7.05;3.70;;;12.80;97.20;;;;;;5015215;28;20222;-67
2021/10/17 08:11:38;;;;;;;7.38;4.70;;;12.90;97.20;;;;;;5015061;28;20730;-67
2021/10/17 08:14:10;;;;;;;6.72;3.70;;;12.80;97.10;;;;;;5015381;28;20633;-67
2021/10/17 08:16:37;;;;;;;8.48;4.05;;;12.90;97.10;;;;;;5014756;28;20345;-67
2021/10/17 08:19:04;;;;;;;8.80;4.70;;;12.90;97.10;;;;;;5015186;28;20226;-67
2021/10/17 08:21:32;;;;;;;6.15;4.20;;;12.90;97.10;;;;;;5014511;28;20234;-67
2021/10/17 08:23:59;;;;;;;11.38;5.38;;;13.00;97.20;;;;;;5015248;28;20221;-67
2021/10/17 08:26:26;;;;;;;9.50;5.60;;;13.10;97.30;;;;;;5013391;28;20241;-67
2021/10/17 08:28:53;;;;;;;8.20;4.75;;;13.10;97.30;;;;;;5014875;28;20225;-67
2021/10/17 08:31:21;;;;;;;7.30;5.60;;;13.20;97.30;;;;;;5014488;28;20222;-67
2021/10/17 08:33:48;;;;;;;6.18;3.30;;;13.20;97.10;;;;;;5032007;28;20229;-67
2021/10/17 08:36:16;;;;;;;5.85;4.57;;;13.30;97.00;;;;;;5034657;28;20537;-67
2021/10/17 08:38:43;;;;;;;5.30;4.15;;;13.30;96.90;;;;;;5034265;28;20452;-67
2021/10/17 08:41:10;;;;;;;7.80;5.35;;;13.40;96.90;;;;;;5034487;28;20233;-67
2021/10/17 08:43:37;;;;;;;6.85;5.35;;;13.40;97.10;;;;;;5025471;28;20233;-67
2021/10/17 08:46:04;;;;;;;8.38;4.13;;;13.50;97.00;;;;;;5014837;28;20218;-67
2021/10/17 08:48:33;;;;;;;6.85;3.85;;;13.60;96.80;;;;;;5014184;28;20233;-67
2021/10/17 08:51:01;;;;;;;7.07;4.10;;;13.60;96.80;;;;;;5014483;28;20222;-67
2021/10/17 08:53:28;;;;;;;5.53;3.10;;;13.70;96.90;;;;;;5014129;28;20222;-67
2021/10/17 08:55:55;;;;;;;10.73;7.25;;;13.70;96.80;;;;;;5014430;28;20229;-67
2021/10/17 08:58:22;;;;;;;5.72;5.00;;;13.70;96.80;;;;;;5013967;28;20221;-67
2021/10/17 09:00:49;;;;;;;6.45;4.43;;;13.80;96.80;;;;;;5014177;28;20305;-67
2021/10/17 09:03:32;;;;;;;7.07;4.75;;;13.80;96.60;;;;;;5014274;28;20226;-67
2021/10/17 09:06:15;;;;;;;8.20;4.10;;;13.90;96.40;;;;;;5014650;28;20237;-67
2021/10/17 09:08:42;;;;;;;5.18;4.00;;;13.90;96.40;;;;;;5014122;28;22813;-67
2021/10/17 09:11:09;;;;;;;7.97;4.10;;;14.00;96.20;;;;;;5014265;28;20222;-67
2021/10/17 09:13:36;;;;;;;4.18;3.40;;;14.00;96.00;;;;;;5014085;28;20229;-67
2021/10/17 09:16:23;;;;;;;6.85;5.85;;;14.10;95.80;;;;;;5013666;28;20591;-67
2021/10/17 09:19:07;;;;;;;5.00;3.90;;;14.10;95.70;;;;;;5013525;28;20233;-67
2021/10/17 09:21:34;;;;;;;14.97;5.57;;;14.20;95.60;;;;;;5029758;28;20468;-67
2021/10/17 09:24:01;;;;;;;4.40;3.53;;;14.10;95.10;;;;;;5033301;28;20464;-67
2021/10/17 09:26:28;;;;;;;12.63;6.90;;;14.20;95.20;;;;;;5033709;28;20958;-67
2021/10/17 09:28:55;;;;;;;8.70;6.68;;;14.10;94.50;;;;;;5033115;28;20465;-67
2021/10/17 09:31:22;;;;;;;7.53;5.20;;;14.20;94.70;;;;;;5033744;28;20221;-67
2021/10/17 09:33:52;;;;;;;6.73;4.30;;;14.30;94.50;;;;;;5033054;28;20535;-67
2021/10/17 09:36:32;;;;;;;6.25;4.13;;;14.40;94.50;;;;;;5033289;28;20539;-67
2021/10/17 09:39:11;;;;;;;5.70;3.60;;;14.40;94.40;;;;;;5033211;28;20641;-67
2021/10/17 09:41:48;;;;;;;7.73;4.80;;;14.50;94.50;;;;;;5033340;28;20874;-67
2021/10/17 09:44:15;;;;;;;4.67;4.07;;;14.60;94.70;;;;;;5018915;28;20460;-67
2021/10/17 09:46:56;;;;;;;4.83;3.60;;;14.60;94.50;;;;;;5013583;28;20469;-67
2021/10/17 09:49:23;;;;;;;5.47;3.77;;;14.60;94.40;;;;;;5013048;28;20461;-67
2021/10/17 09:52:10;;;;;;;8.63;4.20;;;14.60;94.40;;;;;;5013460;28;20544;-67
2021/10/17 09:54:37;;;;;;;9.50;3.80;;;14.60;94.40;;;;;;5013661;28;20484;-67
2021/10/17 09:57:06;;;;;;;4.47;3.67;;;14.60;94.50;;;;;;5013132;28;21205;-67
2021/10/17 09:59:35;;;;;;;7.40;3.63;;;14.60;94.30;;;;;;5013223;28;20564;-67
2021/10/17 10:02:05;;;;;;;6.03;3.30;;;14.60;94.00;;;;;;5013017;28;20496;-67
2021/10/17 10:04:34;;;;;;;4.60;3.60;;;14.70;93.70;;;;;;5013197;28;20476;-67
2021/10/17 10:07:03;;;;;;;7.03;3.60;;;14.70;93.70;;;;;;5012717;28;20465;-67
2021/10/17 10:09:32;;;;;;;8.23;4.47;;;14.80;93.80;;;;;;5013372;28;20472;-67
2021/10/17 10:11:59;;;;;;;4.50;3.50;;;14.80;94.00;;;;;;5012913;28;21021;-67
2021/10/17 10:14:27;;;;;;;9.20;6.27;;;14.80;94.30;;;;;;5013073;28;20473;-67
2021/10/17 10:16:57;;;;;;;6.13;3.90;;;14.90;94.30;;;;;;5012890;28;20963;-67
2021/10/17 10:19:25;;;;;;;7.40;3.20;;;14.90;94.30;;;;;;5013074;28;20562;-67
2021/10/17 10:21:52;;;;;;;7.10;3.73;;;15.00;93.90;;;;;;5012384;28;20461;-68
2021/10/17 10:24:22;;;;;;;7.13;4.37;;;15.00;94.00;;;;;;5012990;28;20469;-67
2021/10/17 10:26:53;;;;;;;6.57;4.53;;;15.10;94.00;;;;;;5012767;28;20473;-67
2021/10/17 10:29:25;;;;;;;7.13;4.67;;;15.10;93.80;;;;;;5012705;28;20547;-67
2021/10/17 10:31:54;;;;;;;8.93;4.57;;;15.20;93.90;;;;;;5013643;28;20595;-67
2021/10/17 10:34:49;;;;;;;12.67;5.23;;;15.20;94.00;;;;;;5033090;28;20807;-67
2021/10/17 10:37:18;;;;;;;7.20;4.00;;;15.20;94.40;;;;;;5032431;28;20452;-67
2021/10/17 10:40:09;;;;;;;6.43;3.63;;;15.20;94.60;;;;;;5032353;28;20535;-67
2021/10/17 10:42:38;;;;;;;10.77;4.00;;;15.30;94.70;;;;;;5032335;28;20483;-67
2021/10/17 10:45:22;;;;;;;7.27;3.83;;;15.40;94.70;;;;;;5026869;28;20464;-67
2021/10/17 10:47:50;;;;;;;7.23;4.40;;;15.50;94.60;;;;;;5032097;28;20502;-67
2021/10/17 10:50:34;;;;;;;6.13;4.40;;;15.50;94.70;;;;;;5036328;28;20475;-68
2021/10/17 10:53:01;;;;;;;7.13;4.83;;;15.60;94.50;;;;;;5036434;28;20564;-67
2021/10/17 10:55:57;;;;;;;12.73;6.67;;;15.60;94.70;;;;;;5036475;28;20468;-66
2021/10/17 10:58:25;;;;;;;8.17;4.83;;;15.70;94.70;;;;;;5012199;28;20467;-66
2021/10/17 11:00:54;;;;;;;6.10;5.00;;;15.70;94.70;;;;;;5036154;28;20472;-67
2021/10/17 11:03:24;;;;;;;5.90;4.27;;;15.70;94.60;;;;;;5035778;28;20461;-67
2021/10/17 11:06:18;;;;;;;7.57;4.63;;;15.70;94.50;;;;;;5036371;28;20467;-66
2021/10/17 11:09:21;;;;;;;5.20;3.90;;;15.60;94.60;;;;;;5036160;28;21294;-67
2021/10/17 11:11:50;;;;;;;6.97;5.00;;;15.60;94.70;;;;;;5036074;28;21294;-66
2021/10/17 11:14:17;;;;;;;7.60;4.80;;;15.60;94.70;;;;;;5036315;28;20526;-67
2021/10/17 11:16:44;;;;;;;8.37;4.90;;;15.60;94.70;;;;;;5035546;28;20868;-66
2021/10/17 11:19:11;;;;;;;8.30;4.37;;;15.50;94.90;;;;;;5036130;28;20877;-66
2021/10/17 11:21:38;;;;;;;4.23;3.77;;;15.50;94.90;;;;;;5035482;28;20479;-66
2021/10/17 11:24:05;;;;;;;6.57;4.63;;;15.50;94.90;;;;;;5035950;28;20468;-66
2021/10/17 11:26:32;;;;;;;6.10;3.70;;;15.50;95.30;;;;;;5035625;28;20487;-67
2021/10/17 11:29:01;;;;;;;14.53;4.67;;;15.50;95.40;;;;;;5036229;28;20464;-66
2021/10/17 11:31:29;;;;;;;11.27;5.20;;;15.60;95.30;;;;;;5035387;28;20463;-67
2021/10/17 11:33:57;;;;;;;9.03;5.37;;;15.60;95.30;;;;;;5035705;28;20502;-67
2021/10/17 11:36:24;;;;;;;8.93;3.77;;;15.60;95.50;;;;;;5035755;28;20522;-67
2021/10/17 11:38:55;;;;;;;8.10;5.73;;;15.70;95.40;;;;;;5035196;28;20464;-67
2021/10/17 11:41:22;;;;;;;10.63;5.90;;;15.70;95.30;;;;;;5035683;28;20471;-68
2021/10/17 11:43:51;;;;;;;6.50;5.67;;;15.70;95.10;;;;;;5029470;28;20461;-68
2021/10/17 11:46:22;;;;;;;7.50;5.30;;;15.70;95.10;;;;;;5035514;28;20472;-67
2021/10/17 11:48:58;;;;;;;7.13;5.57;;;15.70;95.30;;;;;;5034999;28;20463;-68
2021/10/17 11:51:25;;;;;;;8.20;4.43;;;15.70;95.40;;;;;;5035733;28;20475;-69
2021/10/17 11:53:56;;;;;;;10.70;4.53;;;15.70;95.40;;;;;;5035202;28;21256;-67
2021/10/17 11:56:23;;;;;;;5.23;4.20;;;15.70;95.40;;;;;;5035228;28;20479;-68
2021/10/17 11:58:50;;;;;;;5.83;3.97;;;15.70;95.40;;;;;;5022685;28;20465;-67
2021/10/17 12:01:19;;;;;;;9.30;4.90;;;15.70;95.60;;;;;;5015359;28;20548;-68
2021/10/17 12:03:50;;;;;;;10.90;4.80;;;15.70;95.80;;;;;;5014877;28;20469;-68
2021/10/17 12:06:19;;;;;;;9.07;5.17;;;15.70;95.90;;;;;;5015537;28;20461;-67
2021/10/17 12:08:51;;;;;;;6.50;5.27;;;15.80;96.00;;;;;;5015030;28;20858;-68
2021/10/17 12:11:18;;;;;;;6.77;5.47;;;15.80;95.90;;;;;;5015194;28;20547;-68
2021/10/17 12:13:47;;;;;;;9.77;4.90;;;15.90;95.80;;;;;;5014956;28;20835;-68
2021/10/17 12:16:17;;;;;;;5.10;3.57;;;15.90;95.70;;;;;;5015224;28;20473;-68
2021/10/17 12:18:47;;;;;;;6.20;3.17;;;15.90;95.70;;;;;;5014746;28;20466;-67
2021/10/17 12:21:17;;;;;;;7.30;4.70;;;15.90;95.80;;;;;;5015285;28;20520;-68
2021/10/17 12:23:46;;;;;;;6.57;4.43;;;15.90;95.80;;;;;;5014820;28;20515;-68
2021/10/17 12:26:15;;;;;;;8.87;4.60;;;15.90;95.80;;;;;;5014910;28;20547;-67
2021/10/17 12:28:42;;;;;;;7.63;4.13;;;15.90;95.90;;;;;;5014515;28;20959;-68
2021/10/17 12:31:09;;;;;;;7.30;4.20;;;15.80;95.90;;;;;;5015237;28;20987;-68
2021/10/17 12:33:37;;;;;;;6.67;4.10;;;15.80;95.90;;;;;;5029963;28;20809;-67
2021/10/17 12:36:18;;;;;;;8.73;4.20;;;15.80;96.00;;;;;;5034543;28;20467;-68
2021/10/17 12:38:45;;;;;;;4.73;3.50;;;15.80;96.10;;;;;;5034049;28;20476;-67
2021/10/17 12:41:17;;;;;;;10.73;5.00;;;15.80;96.30;;;;;;5034588;28;20467;-67
2021/10/17 12:43:48;;;;;;;11.40;4.53;;;15.70;96.40;;;;;;5028050;28;20531;-68
2021/10/17 12:46:17;;;;;;;5.40;4.30;;;15.70;96.50;;;;;;5034131;28;20464;-68
2021/10/17 12:48:46;;;;;;;7.50;3.63;;;15.70;96.60;;;;;;5034053;28;20468;-68
2021/10/17 12:51:28;;;;;;;6.07;4.00;;;15.70;96.60;;;;;;5034252;28;20970;-68